Terminal Aerodrome Forecast
Issued by NWS

Home | Current Version | Previous Version | Text Only | Print | Product List | Glossary Off
Versions: 1 2 3 4 5 6 7 8 9 10 11 12 13 14

000
FTUS43 KPAH 261700 RRA
TAFCGI
TAF
KCGI 261740Z 2618/2718 16007KT P6SM SCT030 BKN060
     FM261900 21005KT 6SM -RA BR OVC015
     FM270000 30007KT 4SM -RASN OVC012
     FM270300 31007KT 5SM BR OVC020
     FM271500 34010KT P6SM BKN020=

USA.gov is the U.S. government's official web portal to all federal, state and local government web resources and services.